Wetterdaten: Woche 02.09.13 - 08.09.13 (KW36)
Datum Zeit Temp. A. Feuchte A. Luftdruck Regen Wind Richtung Taupunkt Windchill Windben
02.09.2013 00:00 12,9 C 81 % 1023,3 hPa 0,0 l/m 0,0 km/h N 9,6 C 12,9 C 1,2 km/h
02.09.2013 01:00 12,9 C 82 % 1023,3 hPa 0,0 l/m 0,1 km/h N 9,8 C 12,9 C 2,4 km/h
02.09.2013 02:00 12,1 C 80 % 1023,3 hPa 0,0 l/m 0,0 km/h N 8,8 C 12,1 C 0,8 km/h
02.09.2013 03:00 12,2 C 82 % 1023,3 hPa 0,0 l/m 0,2 km/h N 9,2 C 12,2 C 3,2 km/h
02.09.2013 04:00 12,9 C 80 % 1022,9 hPa 0,0 l/m 2,5 km/h N 9,6 C 12,9 C 11,6 km/h
02.09.2013 05:00 13,8 C 71 % 1022,9 hPa 0,0 l/m 5,7 km/h N 8,7 C 13,7 C 16,9 km/h
02.09.2013 06:00 13,8 C 69 % 1023,2 hPa 0,0 l/m 4,8 km/h N 8,2 C 13,8 C 16,5 km/h
02.09.2013 07:00 14,1 C 66 % 1023,2 hPa 0,0 l/m 7,2 km/h N 7,9 C 13,7 C 21,3 km/h
02.09.2013 08:00 15,2 C 62 % 1022,9 hPa 0,0 l/m 9,1 km/h N 7,9 C 13,8 C 25,3 km/h
02.09.2013 09:00 15,9 C 60 % 1023,3 hPa 0,0 l/m 7,1 km/h N 8,1 C 15,4 C 23,7 km/h
02.09.2013 10:00 16,4 C 58 % 1023,4 hPa 0,0 l/m 12,9 km/h N 8,0 C 13,6 C 31,3 km/h
02.09.2013 11:00 17,4 C 55 % 1023,4 hPa 0,0 l/m 11,1 km/h N 8,3 C 15,4 C 29,0 km/h
02.09.2013 12:00 18,8 C 52 % 1022,8 hPa 0,0 l/m 10,9 km/h N 8,6 C 17,0 C 30,6 km/h
02.09.2013 13:00 19,3 C 52 % 1022,5 hPa 0,0 l/m 8,6 km/h N 9,3 C 18,4 C 25,3 km/h
02.09.2013 14:00 19,6 C 51 % 1021,7 hPa 0,0 l/m 11,5 km/h N 9,1 C 17,8 C 32,6 km/h
02.09.2013 15:00 19,7 C 51 % 1021,3 hPa 0,0 l/m 10,5 km/h N 9,2 C 18,2 C 31,8 km/h
02.09.2013 16:00 19,2 C 52 % 1020,8 hPa 0,0 l/m 8,8 km/h N 9,0 C 18,3 C 25,8 km/h
02.09.2013 17:00 19,1 C 52 % 1020,6 hPa 0,0 l/m 8,4 km/h N 8,9 C 18,3 C 25,0 km/h
02.09.2013 18:00 18,8 C 51 % 1020,5 hPa 0,0 l/m 8,2 km/h N 8,5 C 17,9 C 25,8 km/h
02.09.2013 19:00 18,3 C 52 % 1020,5 hPa 0,0 l/m 9,8 km/h N 8,2 C 16,8 C 26,9 km/h
02.09.2013 20:00 18,0 C 52 % 1020,8 hPa 0,0 l/m 14,1 km/h N 7,9 C 15,1 C 39,4 km/h
02.09.2013 21:00 17,4 C 55 % 1021,0 hPa 0,0 l/m 16,5 km/h N 8,1 C 13,7 C 39,4 km/h
02.09.2013 22:00 15,9 C 63 % 1021,4 hPa 0,0 l/m 12,1 km/h N 8,7 C 13,3 C 33,4 km/h
02.09.2013 23:00 16,1 C 62 % 1021,0 hPa 0,0 l/m 12,2 km/h N 8,9 C 13,5 C 33,8 km/h
03.09.2013 00:00 16,8 C 62 % 1020,6 hPa 0,0 l/m 12,7 km/h N 9,4 C 14,1 C 36,6 km/h
03.09.2013 01:00 17,0 C 63 % 1019,9 hPa 0,0 l/m 13,3 km/h N 9,8 C 14,1 C 35,4 km/h
03.09.2013 02:00 17,2 C 63 % 1019,6 hPa 0,0 l/m 14,3 km/h N 10,1 C 14,1 C 39,0 km/h
03.09.2013 03:00 17,5 C 61 % 1019,0 hPa 0,0 l/m 14,5 km/h N 9,8 C 14,4 C 41,0 km/h
03.09.2013 04:00 18,6 C 55 % 1018,5 hPa 0,0 l/m 16,2 km/h N 9,4 C 15,3 C 40,2 km/h
03.09.2013 05:00 18,5 C 58 % 1018,6 hPa 0,0 l/m 14,9 km/h N 10,0 C 15,5 C 40,7 km/h
03.09.2013 06:00 18,6 C 59 % 1018,9 hPa 0,0 l/m 17,1 km/h N 10,4 C 15,1 C 43,4 km/h
03.09.2013 07:00 18,8 C 60 % 1019,3 hPa 0,0 l/m 17,9 km/h N 10,8 C 15,0 C 38,6 km/h
03.09.2013 08:00 18,9 C 61 % 1019,4 hPa 0,0 l/m 18,8 km/h N 11,2 C 15,0 C 41,1 km/h
03.09.2013 09:00 19,3 C 61 % 1020,0 hPa 0,0 l/m 18,5 km/h N 11,5 C 15,6 C 43,5 km/h
03.09.2013 10:00 19,9 C 60 % 1020,8 hPa 0,0 l/m 18,1 km/h N 11,9 C 16,4 C 43,0 km/h
03.09.2013 11:00 20,2 C 61 % 1021,3 hPa 0,0 l/m 16,8 km/h N 12,4 C 17,1 C 35,4 km/h
03.09.2013 12:00 20,0 C 63 % 1021,8 hPa 0,0 l/m 14,0 km/h N 12,8 C 17,6 C 33,8 km/h
03.09.2013 13:00 19,3 C 67 % 1022,3 hPa 0,0 l/m 11,3 km/h N 13,0 C 17,5 C 27,8 km/h
03.09.2013 14:00 19,3 C 69 % 1022,5 hPa 0,0 l/m 10,3 km/h N 13,5 C 17,8 C 27,4 km/h
03.09.2013 15:00 19,4 C 70 % 1022,4 hPa 0,0 l/m 10,4 km/h N 13,7 C 17,8 C 25,7 km/h
03.09.2013 16:00 19,9 C 70 % 1022,6 hPa 0,0 l/m 7,1 km/h N 14,3 C 19,6 C 20,5 km/h
03.09.2013 17:00 19,9 C 71 % 1022,8 hPa 0,0 l/m 5,4 km/h N 14,4 C 19,9 C 18,9 km/h
03.09.2013 18:00 20,1 C 69 % 1022,9 hPa 0,0 l/m 6,9 km/h N 14,3 C 19,8 C 20,9 km/h
03.09.2013 19:00 19,9 C 71 % 1023,4 hPa 0,0 l/m 7,3 km/h N 14,3 C 19,5 C 19,7 km/h
03.09.2013 20:00 19,2 C 73 % 1024,2 hPa 0,0 l/m 2,1 km/h N 14,3 C 19,2 C 10,1 km/h
03.09.2013 21:00 18,9 C 74 % 1024,7 hPa 0,0 l/m 1,5 km/h N 14,1 C 18,9 C 8,4 km/h
03.09.2013 22:00 18,5 C 76 % 1025,0 hPa 0,0 l/m 1,8 km/h N 14,1 C 18,5 C 7,6 km/h
03.09.2013 23:00 18,4 C 76 % 1025,1 hPa 0,0 l/m 3,6 km/h N 14,1 C 18,4 C 10,1 km/h
04.09.2013 00:00 18,1 C 77 % 1025,3 hPa 0,0 l/m 2,1 km/h N 14,0 C 18,1 C 9,6 km/h
04.09.2013 01:00 18,0 C 78 % 1025,4 hPa 0,0 l/m 0,8 km/h N 14,1 C 18,0 C 6,0 km/h
04.09.2013 02:00 18,4 C 77 % 1025,2 hPa 0,0 l/m 1,8 km/h N 14,1 C 18,4 C 10,1 km/h
04.09.2013 03:00 18,2 C 77 % 1024,9 hPa 0,0 l/m 0,5 km/h N 14,1 C 18,2 C 4,0 km/h
04.09.2013 04:00 17,8 C 79 % 1024,9 hPa 0,0 l/m 0,1 km/h N 14,1 C 17,8 C 3,6 km/h
04.09.2013 05:00 17,5 C 80 % 1024,9 hPa 0,0 l/m 0,0 km/h N 13,9 C 17,5 C 0,0 km/h
04.09.2013 06:00 17,2 C 81 % 1024,9 hPa 0,0 l/m 0,0 km/h N 13,9 C 17,2 C 0,0 km/h
04.09.2013 07:00 17,2 C 82 % 1025,0 hPa 0,0 l/m 0,1 km/h N 14,1 C 17,2 C 1,6 km/h
04.09.2013 08:00 17,3 C 82 % 1025,2 hPa 0,0 l/m 0,0 km/h N 14,1 C 17,3 C 0,4 km/h
04.09.2013 09:00 18,2 C 83 % 1025,4 hPa 0,0 l/m 0,1 km/h N 15,1 C 18,2 C 1,2 km/h
04.09.2013 10:00 20,8 C 76 % 1025,1 hPa 0,0 l/m 0,8 km/h N 16,3 C 20,8 C 5,2 km/h
04.09.2013 11:00 21,2 C 74 % 1025,1 hPa 0,0 l/m 1,0 km/h N 16,3 C 21,2 C 5,6 km/h
04.09.2013 12:00 22,5 C 69 % 1024,7 hPa 0,0 l/m 1,5 km/h N 16,5 C 22,5 C 8,0 km/h
04.09.2013 13:00 23,0 C 66 % 1024,2 hPa 0,0 l/m 0,7 km/h N 16,3 C 23,0 C 5,6 km/h
04.09.2013 14:00 23,4 C 64 % 1023,6 hPa 0,0 l/m 0,4 km/h N 16,0 C 23,4 C 6,4 km/h
04.09.2013 15:00 23,5 C 61 % 1022,9 hPa 0,0 l/m 1,6 km/h N 15,6 C 23,5 C 8,9 km/h
04.09.2013 16:00 23,1 C 62 % 1022,5 hPa 0,0 l/m 0,8 km/h N 15,4 C 23,1 C 6,8 km/h
04.09.2013 17:00 22,9 C 63 % 1022,0 hPa 0,0 l/m 0,6 km/h N 15,3 C 22,9 C 5,2 km/h
04.09.2013 18:00 22,9 C 61 % 1021,7 hPa 0,0 l/m 0,2 km/h N 15,0 C 22,9 C 4,0 km/h
04.09.2013 19:00 21,8 C 65 % 1021,7 hPa 0,0 l/m 0,0 km/h N 14,9 C 21,8 C 0,4 km/h
04.09.2013 20:00 19,1 C 74 % 1022,1 hPa 0,0 l/m 0,0 km/h N 14,3 C 19,1 C 0,0 km/h
04.09.2013 21:00 17,2 C 79 % 1022,1 hPa 0,0 l/m 0,0 km/h N 13,5 C 17,2 C 0,8 km/h
04.09.2013 22:00 15,9 C 82 % 1021,9 hPa 0,0 l/m 0,0 km/h N 12,8 C 15,9 C 0,0 km/h
04.09.2013 23:00 15,1 C 83 % 1021,6 hPa 0,0 l/m 0,0 km/h N 12,2 C 15,1 C 0,0 km/h
05.09.2013 00:00 14,6 C 82 % 1021,4 hPa 0,0 l/m 0,0 km/h N 11,7 C 14,6 C 0,4 km/h
05.09.2013 01:00 14,0 C 82 % 1021,2 hPa 0,0 l/m 0,0 km/h N 10,9 C 14,0 C 0,0 km/h
05.09.2013 02:00 13,3 C 82 % 1021,0 hPa 0,0 l/m 0,0 km/h N 10,3 C 13,3 C 0,0 km/h
05.09.2013 03:00 13,0 C 81 % 1020,9 hPa 0,0 l/m 0,0 km/h N 9,8 C 13,0 C 0,0 km/h
05.09.2013 04:00 12,6 C 80 % 1020,5 hPa 0,0 l/m 0,0 km/h N 9,3 C 12,6 C 0,0 km/h
05.09.2013 05:00 12,3 C 80 % 1020,2 hPa 0,0 l/m 0,0 km/h N 8,9 C 12,3 C 0,0 km/h
05.09.2013 06:00 12,3 C 79 % 1020,0 hPa 0,0 l/m 0,0 km/h N 8,8 C 12,3 C 0,0 km/h
05.09.2013 07:00 12,9 C 77 % 1020,1 hPa 0,0 l/m 0,0 km/h N 9,0 C 12,9 C 0,0 km/h
05.09.2013 08:00 14,9 C 75 % 1020,2 hPa 0,0 l/m 0,0 km/h N 10,4 C 14,9 C 1,2 km/h
05.09.2013 09:00 17,5 C 78 % 1020,2 hPa 0,0 l/m 0,8 km/h N 13,5 C 17,5 C 4,8 km/h
05.09.2013 10:00 21,1 C 63 % 1019,9 hPa 0,0 l/m 1,6 km/h N 13,7 C 21,1 C 8,0 km/h
05.09.2013 11:00 23,0 C 57 % 1019,5 hPa 0,0 l/m 0,9 km/h N 14,1 C 23,0 C 7,6 km/h
05.09.2013 12:00 24,6 C 53 % 1019,1 hPa 0,0 l/m 2,3 km/h N 14,4 C 24,6 C 10,1 km/h
05.09.2013 13:00 25,1 C 52 % 1018,5 hPa 0,0 l/m 1,3 km/h N 14,6 C 25,1 C 7,6 km/h
05.09.2013 14:00 25,5 C 50 % 1017,8 hPa 0,0 l/m 2,4 km/h N 14,3 C 25,5 C 10,4 km/h
05.09.2013 15:00 24,5 C 53 % 1017,5 hPa 0,0 l/m 2,0 km/h N 14,1 C 24,5 C 8,9 km/h
05.09.2013 16:00 24,8 C 51 % 1017,2 hPa 0,0 l/m 1,7 km/h N 13,8 C 24,8 C 8,4 km/h
05.09.2013 17:00 24,3 C 50 % 1016,9 hPa 0,0 l/m 0,4 km/h N 13,2 C 24,3 C 5,2 km/h
05.09.2013 18:00 23,6 C 52 % 1016,6 hPa 0,0 l/m 0,8 km/h N 13,1 C 23,6 C 6,0 km/h
05.09.2013 19:00 22,1 C 57 % 1016,6 hPa 0,0 l/m 0,0 km/h N 13,2 C 22,1 C 1,2 km/h
05.09.2013 20:00 19,6 C 66 % 1017,0 hPa 0,0 l/m 0,0 km/h N 13,1 C 19,6 C 0,0 km/h
05.09.2013 21:00 17,2 C 73 % 1017,0 hPa 0,0 l/m 0,0 km/h N 12,3 C 17,2 C 0,0 km/h
05.09.2013 22:00 15,7 C 78 % 1016,9 hPa 0,0 l/m 0,0 km/h N 11,9 C 15,7 C 0,0 km/h
05.09.2013 23:00 14,7 C 81 % 1016,6 hPa 0,0 l/m 0,0 km/h N 11,4 C 14,7 C 0,8 km/h
06.09.2013 00:00 14,0 C 83 % 1016,4 hPa 0,0 l/m 0,0 km/h N 11,2 C 14,0 C 0,0 km/h
06.09.2013 01:00 13,5 C 83 % 1016,3 hPa 0,0 l/m 0,0 km/h N 10,7 C 13,5 C 0,0 km/h
06.09.2013 02:00 12,9 C 83 % 1016,0 hPa 0,0 l/m 0,0 km/h N 10,1 C 12,9 C 0,0 km/h
06.09.2013 03:00 12,9 C 82 % 1015,7 hPa 0,0 l/m 0,0 km/h N 9,9 C 12,9 C 0,0 km/h
06.09.2013 04:00 13,3 C 81 % 1015,4 hPa 0,0 l/m 0,0 km/h N 10,1 C 13,3 C 0,4 km/h
06.09.2013 05:00 12,9 C 82 % 1015,5 hPa 0,0 l/m 0,0 km/h N 9,8 C 12,9 C 0,0 km/h
06.09.2013 06:00 12,8 C 81 % 1015,6 hPa 0,0 l/m 0,0 km/h N 9,6 C 12,8 C 0,0 km/h
06.09.2013 07:00 12,8 C 81 % 1015,9 hPa 0,0 l/m 0,1 km/h N 9,6 C 12,8 C 2,0 km/h
06.09.2013 08:00 14,0 C 82 % 1016,1 hPa 0,0 l/m 0,8 km/h N 10,9 C 14,0 C 6,0 km/h
06.09.2013 09:00 17,4 C 69 % 1016,1 hPa 0,0 l/m 1,5 km/h N 11,6 C 17,4 C 9,3 km/h
06.09.2013 10:00 20,3 C 59 % 1015,7 hPa 0,0 l/m 1,4 km/h N 12,0 C 20,3 C 9,7 km/h
06.09.2013 11:00 22,5 C 54 % 1015,4 hPa 0,0 l/m 2,5 km/h N 12,7 C 22,5 C 15,3 km/h
06.09.2013 12:00 23,7 C 53 % 1015,2 hPa 0,0 l/m 4,8 km/h N 13,4 C 23,7 C 18,9 km/h
06.09.2013 13:00 24,8 C 52 % 1014,9 hPa 0,0 l/m 4,6 km/h N 14,1 C 24,8 C 18,5 km/h
06.09.2013 14:00 25,3 C 50 % 1014,3 hPa 0,0 l/m 4,6 km/h N 14,2 C 25,3 C 18,9 km/h
06.09.2013 15:00 25,3 C 51 % 1013,8 hPa 0,0 l/m 5,1 km/h N 14,3 C 25,3 C 18,5 km/h
06.09.2013 16:00 25,3 C 51 % 1013,4 hPa 0,0 l/m 5,3 km/h N 14,3 C 25,3 C 18,9 km/h
06.09.2013 17:00 25,0 C 51 % 1013,3 hPa 0,0 l/m 4,2 km/h N 14,1 C 25,0 C 14,9 km/h
06.09.2013 18:00 24,3 C 51 % 1013,3 hPa 0,0 l/m 3,6 km/h N 13,5 C 24,3 C 16,1 km/h
06.09.2013 19:00 23,0 C 54 % 1013,9 hPa 0,0 l/m 0,9 km/h N 13,0 C 23,0 C 6,8 km/h
06.09.2013 20:00 21,1 C 60 % 1014,5 hPa 0,0 l/m 0,0 km/h N 12,9 C 21,1 C 1,6 km/h
06.09.2013 21:00 18,2 C 70 % 1014,9 hPa 0,0 l/m 0,0 km/h N 12,5 C 18,2 C 0,0 km/h
06.09.2013 22:00 16,1 C 77 % 1015,0 hPa 0,0 l/m 0,0 km/h N 12,2 C 16,1 C 0,0 km/h
06.09.2013 23:00 15,2 C 81 % 1015,2 hPa 0,0 l/m 0,1 km/h N 11,8 C 15,2 C 1,2 km/h
07.09.2013 00:00 14,3 C 82 % 1015,3 hPa 0,0 l/m 0,0 km/h N 11,3 C 14,3 C 0,0 km/h
07.09.2013 01:00 13,5 C 83 % 1015,6 hPa 0,0 l/m 0,0 km/h N 10,7 C 13,5 C 0,0 km/h
07.09.2013 02:00 12,7 C 83 % 1015,9 hPa 0,0 l/m 0,0 km/h N 9,9 C 12,7 C 0,0 km/h
07.09.2013 03:00 12,4 C 82 % 1015,8 hPa 0,0 l/m 0,0 km/h N 9,3 C 12,4 C 0,0 km/h
07.09.2013 04:00 12,0 C 81 % 1016,1 hPa 0,0 l/m 0,0 km/h N 8,8 C 12,0 C 0,0 km/h
07.09.2013 05:00 11,5 C 81 % 1016,5 hPa 0,0 l/m 0,0 km/h N 8,4 C 11,5 C 0,0 km/h
07.09.2013 06:00 11,0 C 81 % 1017,1 hPa 0,0 l/m 0,0 km/h N 7,8 C 11,0 C 0,0 km/h
07.09.2013 07:00 11,1 C 79 % 1017,6 hPa 0,0 l/m 0,0 km/h N 7,6 C 11,1 C 0,0 km/h
07.09.2013 08:00 12,9 C 78 % 1018,1 hPa 0,0 l/m 0,0 km/h N 9,1 C 12,9 C 0,4 km/h
07.09.2013 09:00 16,6 C 76 % 1018,5 hPa 0,0 l/m 0,8 km/h N 12,3 C 16,6 C 7,3 km/h
07.09.2013 10:00 21,0 C 60 % 1018,6 hPa 0,0 l/m 2,1 km/h N 12,9 C 21,0 C 10,9 km/h
07.09.2013 11:00 23,3 C 52 % 1018,4 hPa 0,0 l/m 4,0 km/h N 12,9 C 23,3 C 16,1 km/h
07.09.2013 12:00 24,9 C 48 % 1018,2 hPa 0,0 l/m 3,8 km/h N 13,1 C 24,9 C 14,9 km/h
07.09.2013 13:00 26,0 C 45 % 1018,0 hPa 0,0 l/m 6,2 km/h N 13,1 C 25,9 C 18,9 km/h
07.09.2013 14:00 27,1 C 43 % 1017,8 hPa 0,0 l/m 4,9 km/h N 13,3 C 27,1 C 16,1 km/h
07.09.2013 15:00 26,5 C 44 % 1017,5 hPa 0,0 l/m 4,4 km/h N 13,3 C 26,5 C 18,1 km/h
07.09.2013 16:00 26,1 C 46 % 1017,5 hPa 0,0 l/m 2,9 km/h N 13,4 C 26,1 C 13,7 km/h
07.09.2013 17:00 25,8 C 47 % 1017,4 hPa 0,0 l/m 2,6 km/h N 13,5 C 25,8 C 12,1 km/h
07.09.2013 18:00 24,9 C 49 % 1017,6 hPa 0,0 l/m 1,5 km/h N 13,4 C 24,9 C 10,5 km/h
07.09.2013 19:00 23,1 C 53 % 1017,9 hPa 0,0 l/m 0,1 km/h N 13,0 C 23,1 C 2,8 km/h
07.09.2013 20:00 20,5 C 62 % 1018,5 hPa 0,0 l/m 0,0 km/h N 12,8 C 20,5 C 0,0 km/h
07.09.2013 21:00 17,7 C 71 % 1019,0 hPa 0,0 l/m 0,0 km/h N 12,4 C 17,7 C 0,0 km/h
07.09.2013 22:00 15,9 C 77 % 1019,3 hPa 0,0 l/m 0,1 km/h N 11,8 C 15,9 C 0,8 km/h
07.09.2013 23:00 14,9 C 79 % 1019,6 hPa 0,0 l/m 0,0 km/h N 11,3 C 14,9 C 0,0 km/h
08.09.2013 00:00 14,0 C 81 % 1019,4 hPa 0,0 l/m 0,0 km/h N 10,8 C 14,0 C 0,0 km/h
08.09.2013 01:00 13,1 C 83 % 1019,3 hPa 0,0 l/m 0,0 km/h N 10,2 C 13,1 C 0,0 km/h
08.09.2013 02:00 12,2 C 83 % 1019,4 hPa 0,0 l/m 0,0 km/h N 9,4 C 12,2 C 0,0 km/h
08.09.2013 03:00 11,6 C 83 % 1019,2 hPa 0,0 l/m 0,0 km/h N 8,8 C 11,6 C 0,0 km/h
08.09.2013 04:00 11,0 C 82 % 1019,1 hPa 0,0 l/m 0,0 km/h N 8,0 C 11,0 C 0,0 km/h
08.09.2013 05:00 10,7 C 81 % 1019,2 hPa 0,0 l/m 0,0 km/h N 7,6 C 10,7 C 0,0 km/h
08.09.2013 06:00 10,6 C 80 % 1019,4 hPa 0,0 l/m 0,0 km/h N 7,3 C 10,6 C 0,0 km/h
08.09.2013 07:00 11,2 C 78 % 1019,1 hPa 0,0 l/m 0,0 km/h N 7,5 C 11,2 C 0,0 km/h
08.09.2013 08:00 14,7 C 76 % 1018,8 hPa 0,0 l/m 2,1 km/h N 10,5 C 14,7 C 7,7 km/h
08.09.2013 09:00 20,7 C 57 % 1018,6 hPa 0,0 l/m 9,0 km/h N 11,6 C 19,8 C 22,9 km/h
08.09.2013 10:00 23,4 C 48 % 1018,4 hPa 0,0 l/m 10,7 km/h N 11,7 C 22,3 C 26,1 km/h
08.09.2013 11:00 25,0 C 44 % 1017,8 hPa 0,0 l/m 15,0 km/h N 11,9 C 23,3 C 33,8 km/h
08.09.2013 12:00 25,8 C 42 % 1017,8 hPa 0,0 l/m 15,0 km/h N 12,0 C 24,3 C 33,4 km/h
08.09.2013 13:00 26,1 C 43 % 1017,9 hPa 0,0 l/m 14,1 km/h N 12,6 C 24,8 C 31,4 km/h
08.09.2013 14:00 26,4 C 44 % 1017,8 hPa 0,0 l/m 10,9 km/h N 13,0 C 25,5 C 27,0 km/h
08.09.2013 15:00 26,6 C 44 % 1017,5 hPa 0,0 l/m 9,4 km/h N 13,1 C 26,0 C 23,3 km/h
08.09.2013 16:00 26,3 C 45 % 1017,1 hPa 0,0 l/m 7,9 km/h N 13,3 C 26,0 C 20,1 km/h
08.09.2013 17:00 25,7 C 46 % 1017,1 hPa 0,0 l/m 7,8 km/h N 13,2 C 25,4 C 20,9 km/h
08.09.2013 18:00 24,9 C 47 % 1016,8 hPa 0,0 l/m 7,2 km/h N 12,8 C 24,6 C 21,3 km/h
08.09.2013 19:00 23,7 C 45 % 1016,8 hPa 0,0 l/m 5,4 km/h N 10,9 C 23,6 C 16,9 km/h
08.09.2013 20:00 22,5 C 47 % 1016,6 hPa 0,0 l/m 2,2 km/h N 10,6 C 22,5 C 8,1 km/h
08.09.2013 21:00 20,8 C 56 % 1016,3 hPa 0,0 l/m 0,1 km/h N 11,5 C 20,8 C 1,6 km/h
08.09.2013 22:00 18,7 C 64 % 1015,9 hPa 0,0 l/m 0,0 km/h N 11,7 C 18,7 C 0,8 km/h
08.09.2013 23:00 16,7 C 71 % 1015,7 hPa 0,0 l/m 0,0 km/h N 11,4 C 16,7 C 1,2 km/h
Min-Datum _ 08.09.13 07.09.13 06.09.13 - 02.09.13 - 08.09.13 08.09.13 02.09.13
_ Min-Zeit 06:15 14:30 18:00 - 00:00 - 06:00 06:00 00:00
Minimum _ 10,5 C 42 % 1013,2 hPa - 0,0 km/h - 7,2 C 10,5 C 0,0 km/h
Max-Datum _ 07.09.13 06.09.13 04.09.13 02.09.13 03.09.13 - 04.09.13 07.09.13 03.09.13
_ Max-Zeit 14:30 08:15 01:00 00:00 08:30 - 12:45 14:30 06:15
Maximum _ 27,3 C 84 % 1025,5 hPa 0,0 l/m 21,3 km/h
N
- 16,8 C 27,3 C 53,1 km/h
N
Durchschnitt _ 18,5 C 66 % 1019,6 hPa #0,0 l/m 4,1 km/h N 11,7 C 18,0 C 12,2 km/h